Time;durP1;ratioP1;P1;durP2;ratioP2;P2;SDS_P1;SDS_P2;PMS_P1;PMS_P2;Temp;Humidity;BMP_temperature;BMP_pressure;BME280_temperature;BME280_humidity;BME280_pressure;Samples;Min_cycle;Max_cycle;Signal;HPM_P1;HPM_P2
2024/01/30 00:00:54;;;;;;;20.27;9.17;;;;;;;;;;6188188;28;20297;-59
2024/01/30 00:03:57;;;;;;;28.00;9.23;;;;;;;;;;6188370;28;20296;-58
2024/01/30 00:07:01;;;;;;;27.57;9.33;;;;;;;;;;6188712;28;20294;-59
2024/01/30 00:10:07;;;;;;;20.63;9.00;;;;;;;;;;6187950;28;20300;-58
2024/01/30 00:13:13;;;;;;;26.23;9.33;;;;;;;;;;6186770;28;20305;-58
2024/01/30 00:16:21;;;;;;;29.63;10.37;;;;;;;;;;6188355;28;20317;-59
2024/01/30 00:19:26;;;;;;;25.20;10.00;;;;;;;;;;6185062;28;20305;-59
2024/01/30 00:22:30;;;;;;;29.07;9.53;;;;;;;;;;6177071;28;20602;-58
2024/01/30 00:25:34;;;;;;;24.63;9.67;;;;;;;;;;6186935;28;20305;-58
2024/01/30 00:28:39;;;;;;;19.27;8.53;;;;;;;;;;6187172;28;20298;-59
2024/01/30 00:31:43;;;;;;;20.77;8.67;;;;;;;;;;6188000;28;20296;-59
2024/01/30 00:34:47;;;;;;;26.37;8.93;;;;;;;;;;6187732;28;20472;-59
2024/01/30 00:37:52;;;;;;;24.73;8.60;;;;;;;;;;6188113;28;20289;-59
2024/01/30 00:40:55;;;;;;;25.00;8.17;;;;;;;;;;6187311;28;20300;-59
2024/01/30 00:44:01;;;;;;;19.23;8.53;;;;;;;;;;6186371;28;20289;-60
2024/01/30 00:47:05;;;;;;;27.93;9.30;;;;;;;;;;6185117;28;20587;-58
2024/01/30 00:50:10;;;;;;;21.07;8.50;;;;;;;;;;6185598;28;20309;-58
2024/01/30 00:53:14;;;;;;;21.37;8.97;;;;;;;;;;6188288;28;20422;-59
2024/01/30 00:56:19;;;;;;;17.40;7.93;;;;;;;;;;6187508;28;20411;-58
2024/01/30 00:59:24;;;;;;;17.60;8.10;;;;;;;;;;6187309;28;20479;-59
2024/01/30 01:02:28;;;;;;;26.03;8.97;;;;;;;;;;6189910;28;20298;-57
2024/01/30 01:05:32;;;;;;;19.47;8.73;;;;;;;;;;6185834;28;20301;-59
2024/01/30 01:08:36;;;;;;;23.93;9.03;;;;;;;;;;6185989;28;20293;-57
2024/01/30 01:11:40;;;;;;;25.03;9.63;;;;;;;;;;6187156;28;20297;-59
2024/01/30 01:14:46;;;;;;;22.17;8.87;;;;;;;;;;6186628;28;20305;-59
2024/01/30 01:17:50;;;;;;;18.73;8.73;;;;;;;;;;6186932;28;20435;-59
2024/01/30 01:20:54;;;;;;;21.07;8.33;;;;;;;;;;6186255;28;20300;-59
2024/01/30 01:23:58;;;;;;;19.73;8.47;;;;;;;;;;6185921;28;20452;-60
2024/01/30 01:27:02;;;;;;;22.47;8.63;;;;;;;;;;6186772;28;20558;-59
2024/01/30 01:30:10;;;;;;;25.23;8.50;;;;;;;;;;6186412;28;20312;-59
2024/01/30 01:33:14;;;;;;;29.37;9.50;;;;;;;;;;6184780;28;20301;-59
2024/01/30 01:36:18;;;;;;;26.30;9.27;;;;;;;;;;6183533;28;20326;-59
2024/01/30 01:39:24;;;;;;;21.37;8.57;;;;;;;;;;6186355;28;20328;-57
2024/01/30 01:42:28;;;;;;;19.50;8.10;;;;;;;;;;6186573;28;20303;-58
2024/01/30 01:45:33;;;;;;;22.50;8.00;;;;;;;;;;6150449;28;20300;-58
2024/01/30 01:48:39;;;;;;;32.80;9.10;;;;;;;;;;6185510;28;20297;-59
2024/01/30 01:51:44;;;;;;;27.40;8.73;;;;;;;;;;6175940;28;20309;-57
2024/01/30 01:54:49;;;;;;;21.20;8.40;;;;;;;;;;6184825;28;20360;-59
2024/01/30 01:57:54;;;;;;;23.10;9.00;;;;;;;;;;6174071;28;20288;-58
2024/01/30 02:01:00;;;;;;;19.07;8.67;;;;;;;;;;6184911;28;20291;-60
2024/01/30 02:04:05;;;;;;;23.80;8.47;;;;;;;;;;6185797;28;20585;-59
2024/01/30 02:07:09;;;;;;;25.20;9.03;;;;;;;;;;6185261;28;20290;-57
2024/01/30 02:10:13;;;;;;;27.57;9.77;;;;;;;;;;6183547;28;20481;-58
2024/01/30 02:13:18;;;;;;;27.63;9.43;;;;;;;;;;6185541;28;20298;-59
2024/01/30 02:16:24;;;;;;;22.63;9.17;;;;;;;;;;6175308;28;20300;-59
2024/01/30 02:19:28;;;;;;;27.73;9.57;;;;;;;;;;6183180;28;20299;-59
2024/01/30 02:22:35;;;;;;;17.97;8.80;;;;;;;;;;6163565;28;20303;-59
2024/01/30 02:25:44;;;;;;;23.07;8.63;;;;;;;;;;6167587;28;20299;-58
2024/01/30 02:28:48;;;;;;;21.83;9.20;;;;;;;;;;6159286;28;20297;-58
2024/01/30 02:31:52;;;;;;;19.93;8.93;;;;;;;;;;6160572;28;20593;-56
2024/01/30 02:34:56;;;;;;;23.60;9.40;;;;;;;;;;6162051;28;20395;-58
2024/01/30 02:38:01;;;;;;;22.50;9.20;;;;;;;;;;6160869;28;20300;-60
2024/01/30 02:41:05;;;;;;;24.70;9.60;;;;;;;;;;6168628;28;20327;-58
2024/01/30 02:44:09;;;;;;;20.73;8.87;;;;;;;;;;6160932;28;20321;-57
2024/01/30 02:47:13;;;;;;;22.57;9.43;;;;;;;;;;6159932;28;20306;-59
2024/01/30 02:50:17;;;;;;;19.57;8.77;;;;;;;;;;6159803;28;20309;-57
2024/01/30 02:53:23;;;;;;;24.53;8.87;;;;;;;;;;6160970;28;20290;-58
2024/01/30 02:56:27;;;;;;;26.87;9.90;;;;;;;;;;6161149;28;20299;-56
2024/01/30 02:59:33;;;;;;;22.70;10.47;;;;;;;;;;6161120;28;20288;-58
2024/01/30 03:02:37;;;;;;;21.70;9.67;;;;;;;;;;6161030;28;20354;-58
2024/01/30 03:05:41;;;;;;;21.97;9.50;;;;;;;;;;6160703;28;20294;-59
2024/01/30 03:08:46;;;;;;;23.80;9.97;;;;;;;;;;6160454;28;20324;-58
2024/01/30 03:11:50;;;;;;;22.30;10.23;;;;;;;;;;6165657;28;20291;-60
2024/01/30 03:14:54;;;;;;;27.00;10.50;;;;;;;;;;6165777;28;20299;-60
2024/01/30 03:17:58;;;;;;;22.43;9.53;;;;;;;;;;6165325;28;20297;-58
2024/01/30 03:21:03;;;;;;;21.47;9.87;;;;;;;;;;6166347;28;20543;-59
2024/01/30 03:24:09;;;;;;;25.40;10.00;;;;;;;;;;6177332;28;20303;-58
2024/01/30 03:27:12;;;;;;;30.80;10.33;;;;;;;;;;6189186;28;20495;-59
2024/01/30 03:30:17;;;;;;;21.00;9.83;;;;;;;;;;6188157;28;20296;-57
2024/01/30 03:33:21;;;;;;;26.83;10.30;;;;;;;;;;6188586;28;20291;-57
2024/01/30 03:36:25;;;;;;;21.80;10.10;;;;;;;;;;6189696;28;20291;-58
2024/01/30 03:39:30;;;;;;;21.60;9.40;;;;;;;;;;6189008;28;20299;-56
2024/01/30 03:42:34;;;;;;;21.33;9.70;;;;;;;;;;6188306;28;20312;-57
2024/01/30 03:45:38;;;;;;;21.10;9.80;;;;;;;;;;6187970;28;20315;-58
2024/01/30 03:48:42;;;;;;;18.67;9.47;;;;;;;;;;6188574;28;20299;-59
2024/01/30 03:51:47;;;;;;;24.97;9.23;;;;;;;;;;6189477;28;20294;-57
2024/01/30 03:54:53;;;;;;;23.37;9.40;;;;;;;;;;6187241;28;20290;-59
2024/01/30 03:57:57;;;;;;;23.97;8.90;;;;;;;;;;6188436;28;20292;-59
2024/01/30 04:01:01;;;;;;;19.17;8.80;;;;;;;;;;6187416;28;20314;-59
2024/01/30 04:04:05;;;;;;;16.07;8.27;;;;;;;;;;6186175;28;20311;-58
2024/01/30 04:07:09;;;;;;;18.27;8.83;;;;;;;;;;6188483;28;20305;-59
2024/01/30 04:10:14;;;;;;;20.40;7.77;;;;;;;;;;6189408;28;20305;-59
2024/01/30 04:13:19;;;;;;;12.80;7.97;;;;;;;;;;6188740;28;20295;-55
2024/01/30 04:16:23;;;;;;;13.77;7.57;;;;;;;;;;6188449;28;20304;-60
2024/01/30 04:19:27;;;;;;;15.37;7.83;;;;;;;;;;6188219;28;20295;-58
2024/01/30 04:22:31;;;;;;;18.93;8.30;;;;;;;;;;6187000;28;20411;-59
2024/01/30 04:25:36;;;;;;;15.07;8.17;;;;;;;;;;6187932;28;20307;-58
2024/01/30 04:28:42;;;;;;;12.10;7.40;;;;;;;;;;6187783;28;20294;-57
2024/01/30 04:31:46;;;;;;;17.53;8.67;;;;;;;;;;6175829;28;20291;-61
2024/01/30 04:34:50;;;;;;;19.77;7.97;;;;;;;;;;6163449;28;20475;-57
2024/01/30 04:37:54;;;;;;;14.17;8.00;;;;;;;;;;6163961;28;20296;-60
2024/01/30 04:40:59;;;;;;;21.13;9.00;;;;;;;;;;6162125;28;20291;-61
2024/01/30 04:44:03;;;;;;;18.00;9.10;;;;;;;;;;6162926;28;20305;-58
2024/01/30 04:47:08;;;;;;;22.77;9.50;;;;;;;;;;6163809;28;20558;-59
2024/01/30 04:50:12;;;;;;;26.13;9.90;;;;;;;;;;6163079;28;20315;-58
2024/01/30 04:53:16;;;;;;;23.83;9.87;;;;;;;;;;6162955;28;20304;-59
2024/01/30 04:56:22;;;;;;;25.90;11.03;;;;;;;;;;6162932;28;20298;-58
2024/01/30 04:59:26;;;;;;;19.57;10.00;;;;;;;;;;6163310;28;20299;-58
2024/01/30 05:02:30;;;;;;;17.27;10.00;;;;;;;;;;6163300;28;20326;-58
2024/01/30 05:05:33;;;;;;;24.33;10.20;;;;;;;;;;6162915;28;20299;-56
2024/01/30 05:08:38;;;;;;;25.20;9.77;;;;;;;;;;6162333;28;20321;-59
2024/01/30 05:11:43;;;;;;;24.23;10.93;;;;;;;;;;6178541;28;20302;-57
2024/01/30 05:14:47;;;;;;;26.77;10.40;;;;;;;;;;6186662;28;20290;-58
2024/01/30 05:17:51;;;;;;;23.90;10.07;;;;;;;;;;6187477;28;20570;-58
2024/01/30 05:20:55;;;;;;;18.63;9.23;;;;;;;;;;6177829;28;20291;-57
2024/01/30 05:23:59;;;;;;;24.87;9.87;;;;;;;;;;6186095;28;20296;-58
2024/01/30 05:27:04;;;;;;;16.63;9.57;;;;;;;;;;6160124;28;20475;-55
2024/01/30 05:30:09;;;;;;;15.63;8.77;;;;;;;;;;6162480;28;20375;-58
2024/01/30 05:33:13;;;;;;;16.60;8.93;;;;;;;;;;6162180;28;20320;-57
2024/01/30 05:36:17;;;;;;;13.73;8.83;;;;;;;;;;6162328;28;20296;-59
2024/01/30 05:39:21;;;;;;;13.93;8.57;;;;;;;;;;6161816;28;20319;-58
2024/01/30 05:42:27;;;;;;;16.40;9.17;;;;;;;;;;6162496;28;20298;-59
2024/01/30 05:45:31;;;;;;;16.53;9.37;;;;;;;;;;6163511;28;20295;-59
2024/01/30 05:48:35;;;;;;;13.30;8.60;;;;;;;;;;6162243;28;20295;-58
2024/01/30 05:51:39;;;;;;;13.53;8.87;;;;;;;;;;6163523;28;20302;-57
2024/01/30 05:54:43;;;;;;;20.87;9.03;;;;;;;;;;6161584;28;20297;-58
2024/01/30 05:57:49;;;;;;;20.73;9.63;;;;;;;;;;6161935;28;20286;-58
2024/01/30 06:00:53;;;;;;;16.03;9.00;;;;;;;;;;6161502;28;20300;-58
2024/01/30 06:03:57;;;;;;;20.10;9.20;;;;;;;;;;6161406;28;20529;-58
2024/01/30 06:07:01;;;;;;;18.50;9.10;;;;;;;;;;6161807;28;20293;-59
2024/01/30 06:10:08;;;;;;;15.20;8.90;;;;;;;;;;6164609;28;20332;-59
2024/01/30 06:13:14;;;;;;;16.13;8.40;;;;;;;;;;6184900;28;20295;-58
2024/01/30 06:16:19;;;;;;;14.17;7.80;;;;;;;;;;6185665;28;20299;-60
2024/01/30 06:19:23;;;;;;;14.87;7.33;;;;;;;;;;6184923;28;20404;-58
2024/01/30 06:22:27;;;;;;;11.80;7.10;;;;;;;;;;6185354;28;20376;-58
2024/01/30 06:25:31;;;;;;;16.37;8.00;;;;;;;;;;6137123;28;20300;-57
2024/01/30 06:28:37;;;;;;;14.53;7.43;;;;;;;;;;6136873;28;20327;-58
2024/01/30 06:31:42;;;;;;;15.97;8.17;;;;;;;;;;6135462;29;20318;-59
2024/01/30 06:34:46;;;;;;;15.53;8.10;;;;;;;;;;6135096;28;20295;-58
2024/01/30 06:37:50;;;;;;;15.50;7.33;;;;;;;;;;6137155;28;20545;-59
2024/01/30 06:40:54;;;;;;;15.43;7.30;;;;;;;;;;6136738;28;20301;-59
2024/01/30 06:43:59;;;;;;;14.70;7.27;;;;;;;;;;6136320;28;20318;-58
2024/01/30 06:47:03;;;;;;;8.97;5.93;;;;;;;;;;6137133;28;20249;-58
2024/01/30 06:50:08;;;;;;;9.97;6.10;;;;;;;;;;6136511;28;20321;-58
2024/01/30 06:53:12;;;;;;;11.60;6.73;;;;;;;;;;6136623;28;20299;-59
2024/01/30 06:56:20;;;;;;;9.77;6.23;;;;;;;;;;6136946;28;20439;-59
2024/01/30 06:59:25;;;;;;;8.47;5.80;;;;;;;;;;6136717;28;20305;-57
2024/01/30 07:02:29;;;;;;;11.40;6.63;;;;;;;;;;6136779;28;20308;-56
2024/01/30 07:05:33;;;;;;;10.33;7.07;;;;;;;;;;6136402;28;20309;-58
2024/01/30 07:08:38;;;;;;;11.10;6.60;;;;;;;;;;6136197;28;20298;-58
2024/01/30 07:11:42;;;;;;;9.17;5.83;;;;;;;;;;6136659;28;20494;-57
2024/01/30 07:14:48;;;;;;;14.00;6.33;;;;;;;;;;6134763;29;20302;-57
2024/01/30 07:17:52;;;;;;;10.13;6.33;;;;;;;;;;6136744;29;20476;-57
2024/01/30 07:20:56;;;;;;;13.33;6.20;;;;;;;;;;6136983;29;20308;-56
2024/01/30 07:24:00;;;;;;;15.33;6.27;;;;;;;;;;6159898;28;20287;-55
2024/01/30 07:27:05;;;;;;;12.67;6.10;;;;;;;;;;6184427;28;20314;-56
2024/01/30 07:30:11;;;;;;;10.07;5.97;;;;;;;;;;6183509;28;20601;-55
2024/01/30 07:33:15;;;;;;;12.90;6.37;;;;;;;;;;6183509;28;20364;-55
2024/01/30 07:36:19;;;;;;;10.07;6.20;;;;;;;;;;6183152;28;20337;-57
2024/01/30 07:39:23;;;;;;;10.93;6.50;;;;;;;;;;6166005;28;20292;-57
2024/01/30 07:42:27;;;;;;;15.77;6.10;;;;;;;;;;6184115;28;20296;-57
2024/01/30 07:45:33;;;;;;;17.50;6.27;;;;;;;;;;6183843;28;20535;-57
2024/01/30 07:48:37;;;;;;;12.47;6.67;;;;;;;;;;6183591;28;20458;-55
2024/01/30 07:51:41;;;;;;;10.97;6.33;;;;;;;;;;6184168;28;20476;-59
2024/01/30 07:54:45;;;;;;;11.17;5.90;;;;;;;;;;6183488;28;20283;-57
2024/01/30 07:57:49;;;;;;;11.80;6.17;;;;;;;;;;6187947;28;20568;-58
2024/01/30 08:00:58;;;;;;;11.37;6.73;;;;;;;;;;6188037;28;20286;-59
2024/01/30 08:04:02;;;;;;;12.83;7.27;;;;;;;;;;6188236;28;20296;-59
2024/01/30 08:07:06;;;;;;;10.67;6.70;;;;;;;;;;6188353;28;20291;-58
2024/01/30 08:10:13;;;;;;;15.70;7.20;;;;;;;;;;6187334;28;20315;-59
2024/01/30 08:13:17;;;;;;;8.97;6.20;;;;;;;;;;6187731;28;20311;-59
2024/01/30 08:16:22;;;;;;;12.77;6.43;;;;;;;;;;6188297;28;20414;-58
2024/01/30 08:19:26;;;;;;;9.73;5.93;;;;;;;;;;6188021;28;20478;-57
2024/01/30 08:22:30;;;;;;;10.87;5.77;;;;;;;;;;6187985;28;20299;-59
2024/01/30 08:25:36;;;;;;;14.23;6.17;;;;;;;;;;6187398;28;20376;-57
2024/01/30 08:28:40;;;;;;;8.97;5.73;;;;;;;;;;6187157;28;20295;-60
2024/01/30 08:31:46;;;;;;;8.03;6.17;;;;;;;;;;6187730;28;20311;-59
2024/01/30 08:34:50;;;;;;;13.27;6.37;;;;;;;;;;6187010;28;20303;-58
2024/01/30 08:37:54;;;;;;;10.10;5.73;;;;;;;;;;6188066;28;20291;-55
2024/01/30 08:40:58;;;;;;;9.13;6.03;;;;;;;;;;6187072;28;20295;-56
2024/01/30 08:44:03;;;;;;;10.60;6.30;;;;;;;;;;6187028;28;20578;-58
2024/01/30 08:47:08;;;;;;;12.03;5.83;;;;;;;;;;6187698;28;20367;-57
2024/01/30 08:50:12;;;;;;;13.70;6.13;;;;;;;;;;6186955;28;20594;-59
2024/01/30 08:53:16;;;;;;;10.17;6.47;;;;;;;;;;6187464;28;20299;-58
2024/01/30 08:56:20;;;;;;;11.03;5.73;;;;;;;;;;6187859;28;20563;-58
2024/01/30 08:59:24;;;;;;;7.60;5.50;;;;;;;;;;6186656;28;20602;-60
2024/01/30 09:02:29;;;;;;;9.77;6.00;;;;;;;;;;6186996;28;20299;-59
2024/01/30 09:05:33;;;;;;;7.20;5.90;;;;;;;;;;6186155;28;20298;-58
2024/01/30 09:08:37;;;;;;;9.00;6.00;;;;;;;;;;6185761;28;20288;-57
2024/01/30 09:11:41;;;;;;;9.13;6.03;;;;;;;;;;6185801;28;20598;-57
2024/01/30 09:14:45;;;;;;;10.17;6.03;;;;;;;;;;6177603;28;20304;-58
2024/01/30 09:17:51;;;;;;;14.13;7.07;;;;;;;;;;6186751;28;20317;-57
2024/01/30 09:20:55;;;;;;;11.73;6.93;;;;;;;;;;6185391;28;20299;-56
2024/01/30 09:24:03;;;;;;;9.93;6.53;;;;;;;;;;6185980;28;20303;-56
2024/01/30 09:30:29;;;;;;;11.03;7.00;;;;;;;;;;6184780;28;20308;-57
2024/01/30 09:33:34;;;;;;;12.40;6.53;;;;;;;;;;6168329;28;20307;-58
2024/01/30 09:36:38;;;;;;;13.10;7.30;;;;;;;;;;6186220;28;20468;-57
2024/01/30 09:39:42;;;;;;;15.60;7.63;;;;;;;;;;6185755;28;20293;-57
2024/01/30 09:42:50;;;;;;;12.47;7.27;;;;;;;;;;6186060;28;20291;-57
2024/01/30 09:45:54;;;;;;;13.80;7.23;;;;;;;;;;6185492;28;20296;-55
2024/01/30 09:49:01;;;;;;;11.57;6.67;;;;;;;;;;6185279;28;20294;-58
2024/01/30 09:52:06;;;;;;;15.90;8.07;;;;;;;;;;6186081;28;20484;-57
2024/01/30 09:55:10;;;;;;;16.77;7.37;;;;;;;;;;6167596;28;20296;-56
2024/01/30 09:58:15;;;;;;;17.27;8.20;;;;;;;;;;6185178;28;20292;-58
2024/01/30 10:01:19;;;;;;;17.20;8.37;;;;;;;;;;6185802;28;20300;-57
2024/01/30 10:04:25;;;;;;;15.20;7.70;;;;;;;;;;6185314;28;20326;-57
2024/01/30 10:07:30;;;;;;;15.33;7.70;;;;;;;;;;6185679;28;20300;-58
2024/01/30 10:10:33;;;;;;;13.53;7.80;;;;;;;;;;6184955;28;20296;-57
2024/01/30 10:13:40;;;;;;;17.23;7.93;;;;;;;;;;6185029;28;20309;-58
2024/01/30 10:16:45;;;;;;;16.70;8.07;;;;;;;;;;6185844;28;20300;-56
2024/01/30 10:19:51;;;;;;;15.87;7.87;;;;;;;;;;6184645;28;20616;-57
2024/01/30 10:22:55;;;;;;;17.60;8.40;;;;;;;;;;6185544;28;20365;-59
2024/01/30 10:25:59;;;;;;;14.70;7.63;;;;;;;;;;6184873;28;20301;-60
2024/01/30 10:29:03;;;;;;;13.23;7.77;;;;;;;;;;6184816;28;20288;-56
2024/01/30 10:32:07;;;;;;;17.67;7.97;;;;;;;;;;6185188;28;20301;-57
2024/01/30 10:35:12;;;;;;;20.03;8.80;;;;;;;;;;6184710;28;20297;-60
2024/01/30 10:38:17;;;;;;;14.90;8.33;;;;;;;;;;6184618;28;20301;-58
2024/01/30 10:41:26;;;;;;;16.37;8.73;;;;;;;;;;6184520;28;20303;-57
2024/01/30 10:44:31;;;;;;;15.27;8.60;;;;;;;;;;6184191;28;20569;-58
2024/01/30 10:47:36;;;;;;;17.63;8.87;;;;;;;;;;6184768;28;20292;-56
2024/01/30 10:50:41;;;;;;;20.27;8.53;;;;;;;;;;6184547;28;20304;-57
2024/01/30 10:53:57;;;;;;;17.10;8.87;;;;;;;;;;6186381;28;20298;-58
2024/01/30 10:57:03;;;;;;;18.13;9.00;;;;;;;;;;6184843;28;20573;-57
2024/01/30 11:00:11;;;;;;;22.47;8.83;;;;;;;;;;6184305;28;20381;-60
2024/01/30 11:03:15;;;;;;;19.27;8.87;;;;;;;;;;6184042;28;20605;-60
2024/01/30 11:06:23;;;;;;;19.83;9.07;;;;;;;;;;6183974;28;20331;-58
2024/01/30 11:09:30;;;;;;;19.97;9.17;;;;;;;;;;6184069;28;20297;-59
2024/01/30 11:12:40;;;;;;;20.33;9.03;;;;;;;;;;6184410;28;20289;-59
2024/01/30 11:15:44;;;;;;;21.67;9.40;;;;;;;;;;6184099;28;20300;-57
2024/01/30 11:18:52;;;;;;;17.60;9.03;;;;;;;;;;6183722;28;20297;-56
2024/01/30 11:21:58;;;;;;;20.30;9.50;;;;;;;;;;6184628;28;20289;-58
2024/01/30 11:25:03;;;;;;;19.10;9.63;;;;;;;;;;6183846;28;20301;-58
2024/01/30 11:28:14;;;;;;;19.40;9.57;;;;;;;;;;6184151;28;20305;-59
2024/01/30 11:31:20;;;;;;;23.67;10.07;;;;;;;;;;6186568;28;20296;-58
2024/01/30 11:34:24;;;;;;;24.90;10.23;;;;;;;;;;6188638;28;20305;-58
2024/01/30 11:37:30;;;;;;;22.50;9.87;;;;;;;;;;6189114;28;20520;-59
2024/01/30 11:40:35;;;;;;;25.23;10.97;;;;;;;;;;6188537;28;20329;-59
2024/01/30 11:43:40;;;;;;;26.60;10.07;;;;;;;;;;6188193;28;20297;-58
2024/01/30 11:46:44;;;;;;;24.10;10.87;;;;;;;;;;6189127;28;20294;-59
2024/01/30 11:49:48;;;;;;;26.33;10.37;;;;;;;;;;6188282;28;20289;-58
2024/01/30 11:52:55;;;;;;;20.90;10.57;;;;;;;;;;6188631;28;20503;-57
2024/01/30 11:56:00;;;;;;;22.73;9.93;;;;;;;;;;6188364;28;20293;-58
2024/01/30 11:59:04;;;;;;;26.60;11.30;;;;;;;;;;6188367;28;20302;-57
2024/01/30 12:02:08;;;;;;;24.43;10.77;;;;;;;;;;6188385;28;20304;-57
2024/01/30 12:05:12;;;;;;;19.43;10.33;;;;;;;;;;6187724;28;20294;-58
2024/01/30 12:08:18;;;;;;;22.70;10.33;;;;;;;;;;6187809;28;20482;-58
2024/01/30 12:11:22;;;;;;;22.47;10.37;;;;;;;;;;6188418;28;20293;-58
2024/01/30 12:14:26;;;;;;;22.23;9.80;;;;;;;;;;6186496;28;20293;-57
2024/01/30 12:17:32;;;;;;;18.73;10.40;;;;;;;;;;6188164;28;20293;-58
2024/01/30 12:20:36;;;;;;;18.27;10.32;;;;;;;;;;6187836;28;20519;-58
2024/01/30 12:23:42;;;;;;;21.53;11.10;;;;;;;;;;6187200;28;20302;-57
2024/01/30 12:26:46;;;;;;;21.67;10.60;;;;;;;;;;6187811;28;20298;-57
2024/01/30 12:29:50;;;;;;;20.50;10.37;;;;;;;;;;6187351;28;20309;-58
2024/01/30 12:32:53;;;;;;;19.63;10.20;;;;;;;;;;6187287;28;20308;-57
2024/01/30 12:35:58;;;;;;;20.00;10.30;;;;;;;;;;6186404;28;20293;-58
2024/01/30 12:39:08;;;;;;;30.13;10.63;;;;;;;;;;6186924;28;20309;-58
2024/01/30 12:42:12;;;;;;;16.70;10.07;;;;;;;;;;6186706;28;20312;-58
2024/01/30 12:45:20;;;;;;;17.23;9.80;;;;;;;;;;6187150;28;20700;-57
2024/01/30 12:48:24;;;;;;;18.37;11.00;;;;;;;;;;6186235;28;20293;-58
2024/01/30 12:51:28;;;;;;;18.63;9.60;;;;;;;;;;6187377;28;20312;-57
2024/01/30 12:54:34;;;;;;;19.77;10.73;;;;;;;;;;6184288;28;20606;-58
2024/01/30 12:57:39;;;;;;;19.83;10.23;;;;;;;;;;6186682;28;20838;-56
2024/01/30 13:00:43;;;;;;;20.20;9.77;;;;;;;;;;6186351;28;20483;-58
2024/01/30 13:03:48;;;;;;;20.73;10.20;;;;;;;;;;6186690;28;20562;-59
2024/01/30 13:06:52;;;;;;;23.07;10.87;;;;;;;;;;6186989;28;20297;-57
2024/01/30 13:10:02;;;;;;;20.97;10.40;;;;;;;;;;6186525;28;20556;-58
2024/01/30 13:13:06;;;;;;;25.30;10.80;;;;;;;;;;6186643;28;20472;-59
2024/01/30 13:16:19;;;;;;;20.67;10.23;;;;;;;;;;6187053;28;20480;-58
2024/01/30 13:19:23;;;;;;;21.80;9.77;;;;;;;;;;6186492;28;20308;-58
2024/01/30 13:22:27;;;;;;;19.43;9.07;;;;;;;;;;6189084;28;20496;-58
2024/01/30 13:25:33;;;;;;;17.43;9.20;;;;;;;;;;6186352;28;20301;-59
2024/01/30 13:28:37;;;;;;;19.03;9.27;;;;;;;;;;6186216;28;20543;-58
2024/01/30 13:31:41;;;;;;;19.33;8.63;;;;;;;;;;6186702;28;20318;-58
2024/01/30 13:34:45;;;;;;;12.87;8.10;;;;;;;;;;6185869;28;20306;-57
2024/01/30 13:37:49;;;;;;;13.33;7.63;;;;;;;;;;6186504;28;20538;-57
2024/01/30 13:40:55;;;;;;;12.37;7.90;;;;;;;;;;6186103;28;20300;-59
2024/01/30 13:43:59;;;;;;;11.27;7.60;;;;;;;;;;6185540;28;20293;-59
2024/01/30 13:47:02;;;;;;;11.33;7.97;;;;;;;;;;6186024;28;20301;-58
2024/01/30 13:50:07;;;;;;;11.73;7.17;;;;;;;;;;6185133;28;20293;-59
2024/01/30 13:53:12;;;;;;;16.90;7.87;;;;;;;;;;6185139;28;20297;-58
2024/01/30 13:56:19;;;;;;;12.37;7.97;;;;;;;;;;6185311;28;20297;-59
2024/01/30 13:59:24;;;;;;;10.93;7.40;;;;;;;;;;6185165;28;20297;-59
2024/01/30 14:02:28;;;;;;;12.63;7.73;;;;;;;;;;6185537;28;20292;-57
2024/01/30 14:05:32;;;;;;;11.27;7.13;;;;;;;;;;6185518;28;20321;-59
2024/01/30 14:08:36;;;;;;;14.70;8.10;;;;;;;;;;6185116;28;20292;-59
2024/01/30 14:11:42;;;;;;;11.60;7.23;;;;;;;;;;6185525;28;20304;-58
2024/01/30 14:14:46;;;;;;;10.67;6.90;;;;;;;;;;6184027;28;20453;-59
2024/01/30 14:17:50;;;;;;;14.00;7.80;;;;;;;;;;6185466;28;20304;-58
2024/01/30 14:20:54;;;;;;;10.93;7.80;;;;;;;;;;6184712;28;20293;-58
2024/01/30 14:23:58;;;;;;;12.37;8.47;;;;;;;;;;6184932;28;20293;-59
2024/01/30 14:27:04;;;;;;;12.10;7.80;;;;;;;;;;6185093;28;20294;-58
2024/01/30 14:30:11;;;;;;;15.63;8.10;;;;;;;;;;6184477;28;20294;-59
2024/01/30 14:33:16;;;;;;;10.70;7.43;;;;;;;;;;6184861;28;20593;-58
2024/01/30 14:36:20;;;;;;;13.73;7.87;;;;;;;;;;6184837;28;20313;-60
2024/01/30 14:39:24;;;;;;;16.63;8.20;;;;;;;;;;6184201;28;20638;-57
2024/01/30 14:42:31;;;;;;;13.27;7.80;;;;;;;;;;6184797;28;20302;-58
2024/01/30 14:45:35;;;;;;;13.97;7.73;;;;;;;;;;6184266;28;20292;-59
2024/01/30 14:48:39;;;;;;;13.80;8.37;;;;;;;;;;6184223;28;20571;-59
2024/01/30 14:51:43;;;;;;;12.73;7.93;;;;;;;;;;6184868;28;20294;-59
2024/01/30 14:54:47;;;;;;;11.83;7.80;;;;;;;;;;6184404;28;20298;-58
2024/01/30 14:57:52;;;;;;;14.67;8.83;;;;;;;;;;6184913;28;20463;-59
2024/01/30 15:00:56;;;;;;;15.57;8.63;;;;;;;;;;6183852;28;20293;-58
2024/01/30 15:04:00;;;;;;;14.47;9.10;;;;;;;;;;6184059;28;20296;-57
2024/01/30 15:07:04;;;;;;;13.57;8.23;;;;;;;;;;6184144;28;20300;-58
2024/01/30 15:10:09;;;;;;;11.90;8.50;;;;;;;;;;6184031;28;20309;-58
2024/01/30 15:13:17;;;;;;;14.60;8.37;;;;;;;;;;6183963;28;20289;-58
2024/01/30 15:16:21;;;;;;;13.20;8.23;;;;;;;;;;6184570;28;20296;-58
2024/01/30 15:19:25;;;;;;;14.20;8.40;;;;;;;;;;6183865;28;20290;-58
2024/01/30 15:22:29;;;;;;;14.07;8.17;;;;;;;;;;6184397;28;20289;-59
2024/01/30 15:25:33;;;;;;;16.57;9.07;;;;;;;;;;6134794;29;20305;-59
2024/01/30 15:28:39;;;;;;;14.67;8.70;;;;;;;;;;6136143;28;20310;-59
2024/01/30 15:31:44;;;;;;;11.83;8.30;;;;;;;;;;6136998;28;20375;-57
2024/01/30 15:34:47;;;;;;;12.73;8.37;;;;;;;;;;6136138;28;20294;-58
2024/01/30 15:37:52;;;;;;;11.00;8.00;;;;;;;;;;6136798;28;20295;-57
2024/01/30 15:40:56;;;;;;;11.53;8.00;;;;;;;;;;6136222;28;20299;-59
2024/01/30 15:44:02;;;;;;;13.77;8.23;;;;;;;;;;6135937;28;20286;-60
2024/01/30 15:47:06;;;;;;;11.87;8.00;;;;;;;;;;6136894;28;20473;-58
2024/01/30 15:50:12;;;;;;;13.87;8.07;;;;;;;;;;6137303;28;20303;-59
2024/01/30 15:53:16;;;;;;;11.57;7.23;;;;;;;;;;6137079;28;20294;-58
2024/01/30 15:56:20;;;;;;;10.10;7.47;;;;;;;;;;6136690;28;20298;-58
2024/01/30 15:59:27;;;;;;;10.60;7.10;;;;;;;;;;6136264;28;20457;-57
2024/01/30 16:02:31;;;;;;;9.87;7.63;;;;;;;;;;6136499;28;20299;-59
2024/01/30 16:05:35;;;;;;;13.07;8.20;;;;;;;;;;6133623;28;20307;-58
2024/01/30 16:08:39;;;;;;;12.53;8.07;;;;;;;;;;6134548;28;20290;-58
2024/01/30 16:11:43;;;;;;;10.50;7.53;;;;;;;;;;6136407;28;20294;-60
2024/01/30 16:14:48;;;;;;;12.13;7.93;;;;;;;;;;6135157;29;20299;-59
2024/01/30 16:17:52;;;;;;;14.33;7.83;;;;;;;;;;6138002;29;20292;-57
2024/01/30 16:20:56;;;;;;;10.87;7.40;;;;;;;;;;6140121;29;20310;-60
2024/01/30 16:24:00;;;;;;;10.27;7.23;;;;;;;;;;6162987;28;20297;-57
2024/01/30 16:27:05;;;;;;;16.80;7.40;;;;;;;;;;6188061;28;20313;-58
2024/01/30 16:30:12;;;;;;;11.93;7.47;;;;;;;;;;6187556;28;20294;-60
2024/01/30 16:33:17;;;;;;;10.73;6.53;;;;;;;;;;6167916;28;20467;-60
2024/01/30 16:36:21;;;;;;;11.17;6.83;;;;;;;;;;6163394;29;20306;-59
2024/01/30 16:39:25;;;;;;;10.97;7.37;;;;;;;;;;6163472;28;20428;-59
2024/01/30 16:42:29;;;;;;;11.73;6.33;;;;;;;;;;6163959;29;20555;-58
2024/01/30 16:45:35;;;;;;;14.73;6.80;;;;;;;;;;6163156;28;20602;-58
2024/01/30 16:48:39;;;;;;;10.17;6.60;;;;;;;;;;6163146;28;20313;-57
2024/01/30 16:51:42;;;;;;;8.87;6.80;;;;;;;;;;6163837;29;20294;-58
2024/01/30 16:54:46;;;;;;;18.97;8.20;;;;;;;;;;6162939;28;20293;-58
2024/01/30 16:57:50;;;;;;;14.83;7.60;;;;;;;;;;6163770;29;20293;-57
2024/01/30 17:00:56;;;;;;;15.07;7.07;;;;;;;;;;6162060;28;20348;-59
2024/01/30 17:04:00;;;;;;;13.40;7.93;;;;;;;;;;6162446;29;20305;-57
2024/01/30 17:07:04;;;;;;;15.43;8.07;;;;;;;;;;6162910;28;20543;-57
2024/01/30 17:10:09;;;;;;;15.30;7.90;;;;;;;;;;6162392;29;20314;-57
2024/01/30 17:13:13;;;;;;;20.73;8.53;;;;;;;;;;6162850;28;20290;-58
2024/01/30 17:16:18;;;;;;;15.23;8.40;;;;;;;;;;6163442;28;20297;-58
2024/01/30 17:19:25;;;;;;;13.30;7.07;;;;;;;;;;6162580;28;20294;-57
2024/01/30 17:22:29;;;;;;;13.87;7.83;;;;;;;;;;6162958;28;20605;-56
2024/01/30 17:25:33;;;;;;;17.03;8.33;;;;;;;;;;6168405;28;20305;-57
2024/01/30 17:28:37;;;;;;;11.83;7.87;;;;;;;;;;6186285;28;20297;-60
2024/01/30 17:31:45;;;;;;;10.80;7.50;;;;;;;;;;6187394;28;20276;-59
2024/01/30 17:34:49;;;;;;;14.90;7.87;;;;;;;;;;6186206;28;20289;-59
2024/01/30 17:37:53;;;;;;;12.27;7.83;;;;;;;;;;6186529;28;20301;-58
2024/01/30 17:40:57;;;;;;;15.30;7.83;;;;;;;;;;6185728;28;20297;-59
2024/01/30 17:44:14;;;;;;;19.37;8.53;;;;;;;;;;6185770;28;20313;-59
2024/01/30 17:47:19;;;;;;;13.70;8.63;;;;;;;;;;6186372;28;20296;-59
2024/01/30 17:50:23;;;;;;;17.63;8.37;;;;;;;;;;6185596;28;20451;-59
2024/01/30 17:53:28;;;;;;;16.90;8.20;;;;;;;;;;6185348;28;20478;-57
2024/01/30 17:56:31;;;;;;;15.73;8.47;;;;;;;;;;6186080;28;20550;-56
2024/01/30 17:59:37;;;;;;;18.23;9.60;;;;;;;;;;6185544;28;20296;-58
2024/01/30 18:02:42;;;;;;;17.73;8.47;;;;;;;;;;6186048;28;20476;-58
2024/01/30 18:05:46;;;;;;;12.43;7.60;;;;;;;;;;6185315;28;20308;-59
2024/01/30 18:08:50;;;;;;;14.27;8.47;;;;;;;;;;6185514;28;20297;-59
2024/01/30 18:11:54;;;;;;;15.77;8.20;;;;;;;;;;6185335;28;20301;-57